Saturday, October 25, 2014
19:47 UTC
  |  Log In   |  Register Free
Airport Search:

Fort Smith Regional Airport
(KFSM)

FAA data valid effective September 18, 2014 - November 13, 2014 (unless otherwise noted).

 
 
 
 
 
 
 
 
 
 
 
 
 
 

Current Aviation Weather for Fort Smith Regional Airport (KFSM)

The most recent METAR observation for KFSM was updated at: 1911
METAR Summary (Translated METAR)
KFSM
251853Z 25007KT 10SM CLR 28/16 A3005 RMK AO2 SLP173 T02830161
KJSV
251855Z AUTO 00000KT 10SM CLR 28/16 A3007 RMK AO2
(22.2 nm NW from KFSM)
KRKR
251855Z AUTO 21006KT 10SM CLR 28/16 A3006 RMK AO2 T02810162
(22.6 nm SW from KFSM)
TAF Summary (Translated TAF)
KFSM
251737Z 2518/2618 VRB03KT P6SM SKC FM252100 25007KT P6SM SKC FM260000 VRB03KT P6SM SKC FM260900 VRB03KT 2SM BR SKC TEMPO 2610/2614 1SM BR SCT001
  Airport Weather Conditions for KFSM

 Current Weather at FSM
83° F
Fair
West winds at 8.1 mph
FSM NOAA Radar

Pressure: 30.05 in
Humidity: 48%
Wind: West at 8.1 MPH (7 KT)
Dew Point: 61.0°F
Visibility: 10.00 mi


Airport Weather Forecast for KFSM

Translated METAR and TAF for KFSM
Translated METAR for KFSM (1942 UTC 25 October 2014)
found at http://aviationweather.gov/adds/metars/
 
METAR text: KFSM 251853Z 25007KT 10SM CLR 28/16 A3005 RMK AO2 SLP173 T02830161
Conditions at: KFSM (FORT SMITH , AR, US) observed 1853 UTC 25 October 2014
Temperature: 28.3°C (83°F)
Dewpoint: 16.1°C (61°F) [RH = 48%]
Pressure (altimeter): 30.05 inches Hg (1017.7 mb)
[Sea-level pressure: 1017.3 mb]
Winds: from the WSW (250 degrees) at 8 MPH (7 knots; 3.6 m/s)
Visibility: 10 or more miles (16+ km)
Ceiling: at least 12,000 feet AGL
Clouds: sky clear below 12,000 feet AGL
Weather: no significant weather observed at this time
Translated TAF for KFSM
Forecast for: KFSM (FORT SMITH , AR, US)
TAF Text: KFSM 251737Z 2518/2618 VRB03KT P6SM SKC
Forecast period: 1800 to 2100 UTC 25 October 2014
Forecast type: FROM: standard forecast or significant change
Winds: variable direction winds at 3 MPH (3 knots; 1.6 m/s)
Visibility: 6 or more miles (10+ km)
Clouds: clear skies
Weather: no significant weather forecast for this period
TAF Text: FM252100 25007KT P6SM SKC
Forecast period: 2100 UTC 25 October 2014 to 0000 UTC 26 October 2014
Forecast type: FROM: standard forecast or significant change
Winds: from the WSW (250 degrees) at 8 MPH (7 knots; 3.6 m/s)
Visibility: 6 or more miles (10+ km)
Clouds: clear skies
Weather: no significant weather forecast for this period
TAF Text: FM260000 VRB03KT P6SM SKC
Forecast period: 0000 to 0900 UTC 26 October 2014
Forecast type: FROM: standard forecast or significant change
Winds: variable direction winds at 3 MPH (3 knots; 1.6 m/s)
Visibility: 6 or more miles (10+ km)
Clouds: clear skies
Weather: no significant weather forecast for this period
TAF Text: FM260900 VRB03KT 2SM BR SKC
Forecast period: 0900 to 1800 UTC 26 October 2014
Forecast type: FROM: standard forecast or significant change
Winds: variable direction winds at 3 MPH (3 knots; 1.6 m/s)
Visibility: 2.00 miles (3.22 km)
Clouds: clear skies
Weather: BR  (mist)
TAF Text: TEMPO 2610/2614 1SM BR SCT001
Forecast period: 1000 to 1400 UTC 26 October 2014
Forecast type: TEMPORARY: The following changes expected for less than half the time period
Visibility: 1.00 miles (1.61 km)
Clouds: scattered clouds at 100 feet AGL
Weather: BR  (mist)

Find All Airport Services Find A Hotel Find A Rental Car Find A Golf Course Find A Restaurant $100 Hamburger



FBO's on the Field
FBO Company Facility Photos Services Transportation Aviation Fuel Prices: Prices include tax
Catering Weather Repair Courtesy Rental Type 100LL JetA JetA+ MOGAS 8087
 
TAC Air - FSM

This FBO has not yet been rated
FS:Independent
Last Updated: Sep-18
Login to update fuel prices
SS:
Contact TAC Air - FSMMore FBO Information
 
Add another FBO Facility Photos Catering Weather Repair Courtesy Rental Type 100LL JetA JetA+ MOGAS 8087
Services Transportation Aviation Fuel Prices: Prices include tax


model-print
model-print
model-print
model-print